Mobile Regional Airport
KMOB : now visible

Airfield :











YOU CAN JOIN US ON...

 
LOGIN :

Register | Disclaimer

   EN    FR    IT 

 









Legend :    VFR   Marginal VFR   IFR   Intensive IFR   Very Intensive IFR
Visi :
Ceiling :
>= 8 km
>= 3000ft
5 to 8 km
1000 to 3000 ft
1500m to 5 km
500 to 1000 ft
800 to 1500m
200 to 500 ft
< 800m
< 200 ft
Symbols :   Thunderstorms  Fog  Heavy snow  Heavy precipitations  Wind > 20 kt






- Airport Elevation : 219 ft
- IATA code : MOB


KMOB - Mobile Regional

CURRENT METAR :
  • 062356Z 18008KT 10SM FEW025 SCT080 SCT200 23/14 A3008 RMK AO2 SLP182 T02280139 10278 20228 53003

EXPIRED METARs :
  • 062256Z 17009KT 10SM FEW030 SCT120 SCT220 25/14 A3007 RMK AO2 SLP179 T02500139
  • 062156Z 15011KT 10SM FEW040 FEW080 SCT200 27/14 A3006 RMK AO2 SLP175 T02670139

TAF KMOB
Valid from the 07 at 00:00 until the 08 at 00:00 UTC


062336Z 0700/0724 17007KT P6SM FEW030 SCT250
FM070600 VRB03KT 3SM BR BKN180
FM071100 VRB03KT 3SM BR VCSH BKN020
FM071400 18003KT P6SM VCSH OVC016
FM071900 19005KT P6SM VCSH OVC008



MET'MAP, your aeronautical weather chart ! - Copyright ORBIFLY December 2007 - Disclaimer

ORBIFLY MET'MAP TEAM :

Programming & Development : Alexandra Zaïnal
Concept & original design : Baudouin d'Aumeries
Assistance for programming : Marc-Olivier Méhu
Technical & hardware support : Manuel Goepfert

Contact : metmap@orbifly.com




SOURCES & CREDITS :

   NOAA       Earth
Advisory